Time;durP1;ratioP1;P1;durP2;ratioP2;P2;SDS_P1;SDS_P2;PMS_P1;PMS_P2;Temp;Humidity;BMP_temperature;BMP_pressure;BME280_temperature;BME280_humidity;BME280_pressure;Samples;Min_cycle;Max_cycle;Signal;HPM_P1;HPM_P2
2022/02/16 00:00:10;;;;;;;0.10;0.10;;;23.60;40.70;;;;;;5075385;28;20055;-59
2022/02/16 00:02:42;;;;;;;0.20;0.20;;;23.60;40.70;;;;;;5078033;28;20036;-59
2022/02/16 00:05:11;;;;;;;0.00;0.00;;;23.60;40.80;;;;;;5077301;28;20108;-56
2022/02/16 00:07:40;;;;;;;0.00;0.00;;;23.60;40.80;;;;;;5074870;28;20497;-59
2022/02/16 00:10:08;;;;;;;2.03;0.00;;;23.60;40.80;;;;;;5076041;28;20146;-59
2022/02/16 00:12:35;;;;;;;0.40;0.10;;;23.60;40.80;;;;;;5070831;28;20048;-59
2022/02/16 00:15:02;;;;;;;1.35;0.00;;;23.60;40.90;;;;;;5077349;28;20068;-59
2022/02/16 00:17:30;;;;;;;0.00;0.00;;;23.60;41.00;;;;;;5078261;28;20064;-59
2022/02/16 00:19:59;;;;;;;0.00;0.00;;;23.60;41.00;;;;;;5072853;28;20039;-58
2022/02/16 00:22:26;;;;;;;1.20;0.00;;;23.60;41.00;;;;;;5064174;28;20040;-59
2022/02/16 00:24:53;;;;;;;1.67;0.00;;;23.60;41.00;;;;;;5086660;28;20089;-61
2022/02/16 00:27:20;;;;;;;0.77;0.00;;;23.60;41.00;;;;;;5080470;28;20101;-59
2022/02/16 00:29:47;;;;;;;0.10;0.00;;;23.70;41.00;;;;;;5073897;28;20051;-59
2022/02/16 00:32:15;;;;;;;0.30;0.00;;;23.60;40.90;;;;;;5079547;28;20040;-59
2022/02/16 00:34:42;;;;;;;0.00;0.00;;;23.70;41.00;;;;;;5083939;28;20040;-59
2022/02/16 00:37:11;;;;;;;0.00;0.00;;;23.70;41.00;;;;;;5080039;28;20083;-59
2022/02/16 00:39:38;;;;;;;0.00;0.00;;;23.60;40.90;;;;;;5074184;28;20048;-59
2022/02/16 00:42:06;;;;;;;0.45;0.00;;;23.70;40.90;;;;;;5079157;28;20040;-59
2022/02/16 00:44:33;;;;;;;0.00;0.00;;;23.70;41.00;;;;;;5076050;28;20143;-59
2022/02/16 00:47:00;;;;;;;0.22;0.00;;;23.70;41.00;;;;;;5042325;28;20750;-60
2022/02/16 00:49:29;;;;;;;0.00;0.00;;;23.70;41.00;;;;;;5067597;28;20082;-61
2022/02/16 00:51:56;;;;;;;0.00;0.00;;;23.70;41.00;;;;;;5072326;28;20040;-59
2022/02/16 00:54:30;;;;;;;0.00;0.00;;;23.70;41.00;;;;;;5071113;28;20063;-60
2022/02/16 00:57:01;;;;;;;0.08;0.00;;;23.70;41.00;;;;;;5057826;28;20521;-59
2022/02/16 00:59:31;;;;;;;0.32;0.00;;;23.70;41.10;;;;;;5058540;28;20049;-58
2022/02/16 01:02:02;;;;;;;1.13;0.00;;;23.70;41.10;;;;;;5056596;28;20086;-60
2022/02/16 01:04:29;;;;;;;0.30;0.00;;;23.70;41.20;;;;;;5071701;28;20036;-59
2022/02/16 01:06:57;;;;;;;0.00;0.00;;;23.70;41.30;;;;;;5071970;28;20464;-59
2022/02/16 01:09:24;;;;;;;0.00;0.00;;;23.70;41.20;;;;;;5059029;28;20131;-60
2022/02/16 01:11:55;;;;;;;0.10;0.00;;;23.70;41.20;;;;;;5074920;28;20059;-58
2022/02/16 01:14:30;;;;;;;0.00;0.00;;;23.70;41.20;;;;;;5053650;28;20064;-58
2022/02/16 01:17:18;;;;;;;0.10;0.00;;;23.70;41.20;;;;;;5075948;28;20067;-60
2022/02/16 01:20:10;;;;;;;0.10;0.10;;;23.70;41.30;;;;;;5073005;28;20243;-60
2022/02/16 01:22:38;;;;;;;0.43;0.00;;;23.70;41.20;;;;;;5052708;28;20037;-60
2022/02/16 01:25:11;;;;;;;0.00;0.00;;;23.70;41.30;;;;;;5058743;28;20045;-58
2022/02/16 01:27:40;;;;;;;0.00;0.00;;;23.70;41.30;;;;;;5059819;28;20045;-59
2022/02/16 01:30:11;;;;;;;0.00;0.00;;;23.70;41.30;;;;;;5052216;28;20492;-60
2022/02/16 01:32:50;;;;;;;0.47;0.00;;;23.70;41.30;;;;;;5062296;28;20101;-59
2022/02/16 01:35:25;;;;;;;0.00;0.00;;;23.70;41.30;;;;;;5059555;28;20043;-58
2022/02/16 01:37:53;;;;;;;0.00;0.00;;;23.70;41.30;;;;;;5052055;28;20040;-59
2022/02/16 01:40:20;;;;;;;0.00;0.00;;;23.70;41.30;;;;;;5068019;28;20063;-61
2022/02/16 01:42:51;;;;;;;0.00;0.00;;;23.70;41.20;;;;;;5055386;28;20040;-59
2022/02/16 01:45:26;;;;;;;0.00;0.00;;;23.70;41.20;;;;;;5055853;28;20074;-60
2022/02/16 01:47:53;;;;;;;0.00;0.00;;;23.70;41.20;;;;;;5076163;28;20045;-60
2022/02/16 01:50:21;;;;;;;0.00;0.00;;;23.70;41.20;;;;;;5058567;28;20863;-60
2022/02/16 01:52:48;;;;;;;0.00;0.00;;;23.70;41.20;;;;;;5056657;28;20041;-60
2022/02/16 01:55:16;;;;;;;0.00;0.00;;;23.70;41.20;;;;;;5050771;28;20047;-60
2022/02/16 01:57:44;;;;;;;0.10;0.00;;;23.70;41.20;;;;;;5052400;28;20044;-59
2022/02/16 02:00:16;;;;;;;0.00;0.00;;;23.70;41.30;;;;;;5057498;28;20504;-60
2022/02/16 02:02:46;;;;;;;0.00;0.00;;;23.70;41.20;;;;;;5080923;28;20136;-60
2022/02/16 02:05:36;;;;;;;0.10;0.00;;;23.70;41.10;;;;;;5072193;28;20047;-59
2022/02/16 02:08:06;;;;;;;0.00;0.00;;;23.70;41.10;;;;;;5056414;28;20044;-60
2022/02/16 02:10:33;;;;;;;0.00;0.00;;;23.70;41.10;;;;;;5072368;28;20420;-60
2022/02/16 02:13:00;;;;;;;0.00;0.00;;;23.70;41.10;;;;;;5058050;28;20033;-61
2022/02/16 02:15:42;;;;;;;0.98;0.00;;;23.70;41.10;;;;;;5053680;28;20048;-60
2022/02/16 02:18:26;;;;;;;0.00;0.00;;;23.70;41.10;;;;;;5065355;28;20035;-62
2022/02/16 02:20:55;;;;;;;0.00;0.00;;;23.70;41.20;;;;;;5050990;28;20056;-62
2022/02/16 02:23:22;;;;;;;0.10;0.00;;;23.70;41.10;;;;;;5059943;28;20086;-62
2022/02/16 02:25:52;;;;;;;0.00;0.00;;;23.80;41.20;;;;;;5063272;28;20047;-61
2022/02/16 02:28:22;;;;;;;0.05;0.00;;;23.80;41.20;;;;;;5055125;28;20122;-61
2022/02/16 02:30:50;;;;;;;0.45;0.00;;;23.80;41.20;;;;;;5048798;28;20059;-61
2022/02/16 02:33:19;;;;;;;0.10;0.00;;;23.80;41.20;;;;;;5060377;28;20047;-60
2022/02/16 02:35:52;;;;;;;0.00;0.00;;;23.80;41.20;;;;;;5064752;28;20056;-58
2022/02/16 02:38:21;;;;;;;0.00;0.00;;;23.80;41.20;;;;;;5051924;28;20098;-58
2022/02/16 02:40:53;;;;;;;0.00;0.00;;;23.80;41.10;;;;;;5074489;28;20401;-58
2022/02/16 02:43:21;;;;;;;0.65;0.00;;;23.80;41.10;;;;;;5052965;28;20582;-59
2022/02/16 02:45:49;;;;;;;0.00;0.00;;;23.80;41.10;;;;;;5067071;28;20032;-57
2022/02/16 02:48:19;;;;;;;0.00;0.00;;;23.80;41.10;;;;;;5075362;28;20049;-58
2022/02/16 02:50:46;;;;;;;0.32;0.00;;;23.80;41.10;;;;;;5049871;28;20727;-58
2022/02/16 02:53:14;;;;;;;0.00;0.00;;;23.80;41.10;;;;;;5055769;28;20122;-59
2022/02/16 02:55:43;;;;;;;0.00;0.00;;;23.80;41.10;;;;;;5055116;28;20047;-57
2022/02/16 02:58:10;;;;;;;0.00;0.00;;;23.80;41.10;;;;;;5073668;28;20047;-59
2022/02/16 03:00:43;;;;;;;0.00;0.00;;;23.80;41.10;;;;;;5053607;28;20650;-58
2022/02/16 03:03:10;;;;;;;0.00;0.00;;;23.80;41.10;;;;;;5063072;28;20071;-59
2022/02/16 03:05:38;;;;;;;0.13;0.00;;;23.80;41.10;;;;;;5070567;28;20041;-59
2022/02/16 03:08:06;;;;;;;0.00;0.00;;;23.80;41.10;;;;;;5058335;28;20203;-60
2022/02/16 03:10:33;;;;;;;0.00;0.00;;;23.80;41.10;;;;;;5083517;28;20093;-60
2022/02/16 03:13:02;;;;;;;0.00;0.00;;;23.80;41.20;;;;;;5050815;28;20421;-60
2022/02/16 03:15:40;;;;;;;0.00;0.00;;;23.80;41.20;;;;;;5058791;28;20042;-61
2022/02/16 03:18:07;;;;;;;0.00;0.00;;;23.80;41.20;;;;;;5081378;28;20066;-61
2022/02/16 03:20:35;;;;;;;0.00;0.00;;;23.80;41.20;;;;;;5048030;28;20052;-61
2022/02/16 03:23:02;;;;;;;0.00;0.00;;;23.80;41.20;;;;;;5069978;28;20055;-61
2022/02/16 03:25:29;;;;;;;0.00;0.00;;;23.80;41.20;;;;;;5064866;28;20072;-60
2022/02/16 03:27:57;;;;;;;0.00;0.00;;;23.80;41.20;;;;;;5050275;28;20050;-61
2022/02/16 03:30:26;;;;;;;0.00;0.00;;;23.80;41.20;;;;;;5048286;28;20472;-61
2022/02/16 03:32:56;;;;;;;0.00;0.00;;;23.80;41.20;;;;;;5039152;28;20147;-61
2022/02/16 03:35:23;;;;;;;0.00;0.00;;;23.80;41.30;;;;;;5057037;28;20405;-59
2022/02/16 03:37:51;;;;;;;1.20;0.00;;;23.80;41.30;;;;;;5053029;28;20036;-58
2022/02/16 03:40:18;;;;;;;0.08;0.08;;;23.80;41.40;;;;;;5080183;28;20051;-60
2022/02/16 03:42:45;;;;;;;0.00;0.00;;;23.80;41.40;;;;;;5063535;28;20051;-60
2022/02/16 03:45:12;;;;;;;0.35;0.00;;;23.80;41.50;;;;;;5069748;28;20095;-57
2022/02/16 03:47:55;;;;;;;4.68;0.00;;;23.80;41.50;;;;;;5053319;28;20043;-59
2022/02/16 03:50:25;;;;;;;0.00;0.00;;;23.80;41.50;;;;;;5054174;28;20059;-60
2022/02/16 03:52:54;;;;;;;0.00;0.00;;;23.80;41.50;;;;;;5057073;28;20036;-60
2022/02/16 03:55:22;;;;;;;0.00;0.00;;;23.80;41.50;;;;;;5051698;28;20051;-60
2022/02/16 03:57:49;;;;;;;0.00;0.00;;;23.80;41.60;;;;;;5065011;28;20505;-60
2022/02/16 04:00:19;;;;;;;0.00;0.00;;;23.80;41.60;;;;;;5062659;28;20097;-60
2022/02/16 04:02:51;;;;;;;0.00;0.00;;;23.80;41.50;;;;;;5074207;28;20069;-60
2022/02/16 04:05:19;;;;;;;0.00;0.00;;;23.80;41.60;;;;;;5069922;28;20048;-57
2022/02/16 04:07:48;;;;;;;0.30;0.00;;;23.80;41.60;;;;;;5079055;28;20504;-60
2022/02/16 04:10:17;;;;;;;0.03;0.00;;;23.80;41.60;;;;;;5056099;28;20044;-60
2022/02/16 04:12:44;;;;;;;0.00;0.00;;;23.80;41.60;;;;;;5064587;28;20157;-59
2022/02/16 04:15:10;;;;;;;0.00;0.00;;;23.80;42.20;;;;;;5070524;28;20205;-60
2022/02/16 04:17:41;;;;;;;1.25;0.00;;;23.80;41.60;;;;;;5059838;28;20094;-60
2022/02/16 04:20:13;;;;;;;0.00;0.00;;;23.80;41.60;;;;;;5052604;28;20174;-60
2022/02/16 04:22:44;;;;;;;0.00;0.00;;;23.80;41.60;;;;;;5059609;28;20626;-61
2022/02/16 04:25:14;;;;;;;0.65;0.00;;;23.90;41.70;;;;;;5058159;28;20487;-60
2022/02/16 04:27:41;;;;;;;0.00;0.00;;;23.80;41.60;;;;;;5054433;28;20056;-60
2022/02/16 04:30:10;;;;;;;0.00;0.00;;;23.90;41.70;;;;;;5049807;28;20456;-60
2022/02/16 04:32:38;;;;;;;0.00;0.00;;;23.90;41.70;;;;;;5059526;28;20511;-59
2022/02/16 04:35:07;;;;;;;0.00;0.00;;;23.80;41.60;;;;;;5054244;28;20048;-60
2022/02/16 04:37:34;;;;;;;0.00;0.00;;;23.90;41.60;;;;;;5053992;28;20049;-61
2022/02/16 04:40:03;;;;;;;0.38;0.00;;;23.90;41.70;;;;;;5064603;28;20040;-60
2022/02/16 04:42:30;;;;;;;0.00;0.00;;;23.90;41.60;;;;;;5046910;28;20045;-60
2022/02/16 04:44:57;;;;;;;0.00;0.00;;;23.90;41.60;;;;;;5062177;28;20040;-60
2022/02/16 04:47:24;;;;;;;0.00;0.00;;;23.90;41.60;;;;;;5052678;28;20040;-60
2022/02/16 04:49:51;;;;;;;0.00;0.00;;;23.90;41.60;;;;;;5057000;28;20574;-61
2022/02/16 04:52:18;;;;;;;0.05;0.05;;;23.90;41.50;;;;;;5072464;28;20044;-60
2022/02/16 04:54:46;;;;;;;0.00;0.00;;;23.90;41.50;;;;;;5075755;28;20082;-60
2022/02/16 04:57:14;;;;;;;0.00;0.00;;;23.90;41.50;;;;;;5070451;28;20050;-61
2022/02/16 04:59:46;;;;;;;0.00;0.00;;;23.90;41.50;;;;;;5057247;28;20048;-60
2022/02/16 05:02:13;;;;;;;0.00;0.00;;;24.00;41.50;;;;;;5063508;28;20048;-60
2022/02/16 05:04:41;;;;;;;0.00;0.00;;;23.90;41.50;;;;;;5064781;28;20080;-60
2022/02/16 05:07:08;;;;;;;0.00;0.00;;;23.90;41.50;;;;;;5060971;28;20044;-60
2022/02/16 05:09:35;;;;;;;0.00;0.00;;;23.90;41.50;;;;;;5073485;28;20143;-60
2022/02/16 05:12:02;;;;;;;0.00;0.00;;;24.00;41.50;;;;;;5071747;28;20052;-60
2022/02/16 05:14:31;;;;;;;0.00;0.00;;;24.00;41.50;;;;;;5055616;28;20048;-61
2022/02/16 05:17:01;;;;;;;0.00;0.00;;;24.00;41.50;;;;;;5054447;28;20568;-60
2022/02/16 05:19:29;;;;;;;0.55;0.00;;;24.00;41.50;;;;;;5060349;28;20082;-61
2022/02/16 05:21:58;;;;;;;0.00;0.00;;;24.00;41.50;;;;;;5050252;28;20473;-60
2022/02/16 05:24:30;;;;;;;0.43;0.00;;;24.00;41.50;;;;;;5053997;28;20048;-60
2022/02/16 05:26:57;;;;;;;0.00;0.00;;;24.00;41.50;;;;;;5072947;28;20230;-60
2022/02/16 05:29:25;;;;;;;0.00;0.00;;;24.00;41.50;;;;;;5053438;28;20174;-58
2022/02/16 05:31:59;;;;;;;0.00;0.00;;;24.00;41.50;;;;;;5043967;28;20040;-60
2022/02/16 05:34:27;;;;;;;0.00;0.00;;;24.00;41.60;;;;;;5059221;28;20051;-60
2022/02/16 05:36:54;;;;;;;0.00;0.00;;;24.00;41.60;;;;;;5051208;28;20057;-60
2022/02/16 05:39:24;;;;;;;0.00;0.00;;;24.00;41.60;;;;;;5057609;28;20040;-60
2022/02/16 05:41:52;;;;;;;0.00;0.00;;;24.10;41.70;;;;;;5056600;28;20233;-61
2022/02/16 05:44:19;;;;;;;0.43;0.00;;;24.10;41.70;;;;;;5061913;28;20044;-60
2022/02/16 05:46:46;;;;;;;4.75;0.00;;;24.10;41.60;;;;;;5061056;28;20054;-60
2022/02/16 05:49:15;;;;;;;1.55;0.57;;;24.10;41.70;;;;;;5061805;28;20117;-60
2022/02/16 05:51:42;;;;;;;1.20;0.13;;;24.10;41.70;;;;;;5051409;28;20059;-60
2022/02/16 05:54:11;;;;;;;0.00;0.00;;;24.10;42.30;;;;;;5068337;28;20036;-61
2022/02/16 05:56:39;;;;;;;0.00;0.00;;;24.10;41.70;;;;;;5076942;28;20129;-61
2022/02/16 05:59:12;;;;;;;0.00;0.00;;;24.10;41.70;;;;;;5061987;28;20040;-61
2022/02/16 06:01:40;;;;;;;2.30;0.00;;;24.10;41.70;;;;;;5066255;28;20053;-62
2022/02/16 06:04:08;;;;;;;0.52;0.00;;;24.10;42.30;;;;;;5053395;28;20632;-62
2022/02/16 06:06:39;;;;;;;0.08;0.00;;;24.10;41.70;;;;;;5058567;28;20056;-62
2022/02/16 06:09:06;;;;;;;0.10;0.00;;;24.10;41.70;;;;;;5054780;28;20069;-61
2022/02/16 06:11:34;;;;;;;0.20;0.00;;;24.10;41.70;;;;;;5062470;28;20123;-62
2022/02/16 06:14:07;;;;;;;0.00;0.00;;;24.10;41.70;;;;;;5046688;28;20044;-61
2022/02/16 06:16:36;;;;;;;0.00;0.00;;;24.10;41.70;;;;;;5053653;28;20043;-61
2022/02/16 06:19:03;;;;;;;0.00;0.00;;;24.10;41.70;;;;;;5071230;28;20047;-63
2022/02/16 06:21:30;;;;;;;0.52;0.00;;;24.20;41.70;;;;;;5056505;28;20052;-60
2022/02/16 06:23:59;;;;;;;0.00;0.00;;;24.20;41.70;;;;;;5068132;28;20527;-61
2022/02/16 06:26:27;;;;;;;0.30;0.00;;;24.20;41.70;;;;;;5056516;28;20114;-61
2022/02/16 06:28:55;;;;;;;0.30;0.00;;;24.20;41.70;;;;;;5056442;28;20040;-60
2022/02/16 06:31:26;;;;;;;0.00;0.00;;;24.20;41.70;;;;;;5058006;28;20040;-60
2022/02/16 06:33:54;;;;;;;0.00;0.00;;;24.20;41.70;;;;;;5064483;28;20044;-60
2022/02/16 06:36:23;;;;;;;0.00;0.00;;;24.20;41.70;;;;;;5056400;28;20048;-60
2022/02/16 06:38:51;;;;;;;0.00;0.00;;;24.20;41.70;;;;;;5053951;28;20067;-60
2022/02/16 06:41:21;;;;;;;2.45;0.00;;;24.20;41.70;;;;;;5076356;28;20447;-60
2022/02/16 06:43:48;;;;;;;0.00;0.00;;;24.20;41.60;;;;;;5061275;28;20100;-60
2022/02/16 06:46:16;;;;;;;0.00;0.00;;;24.20;41.70;;;;;;5076401;28;20036;-61
2022/02/16 06:48:43;;;;;;;0.00;0.00;;;24.30;41.70;;;;;;5073408;28;20079;-61
2022/02/16 06:51:11;;;;;;;0.35;0.00;;;24.30;41.70;;;;;;5062348;28;20098;-62
2022/02/16 06:53:38;;;;;;;0.52;0.00;;;24.30;41.70;;;;;;5053159;28;20067;-61
2022/02/16 06:56:06;;;;;;;0.00;0.00;;;24.30;41.70;;;;;;5058894;28;20037;-62
2022/02/16 06:59:03;;;;;;;;;;;24.30;41.70;;;;;;4996431;28;20244;-61
2022/02/16 07:01:33;;;;;;;0.10;0.00;;;24.30;41.80;;;;;;4985311;28;20038;-60
2022/02/16 07:04:00;;;;;;;0.00;0.00;;;24.30;41.90;;;;;;5001620;28;20570;-61
2022/02/16 07:06:31;;;;;;;0.00;0.00;;;24.30;41.90;;;;;;4982468;28;20049;-60
2022/02/16 07:09:04;;;;;;;0.00;0.00;;;24.30;41.80;;;;;;4970249;28;20523;-61
2022/02/16 07:11:31;;;;;;;0.03;0.00;;;24.30;41.80;;;;;;4996424;28;20076;-59
2022/02/16 07:13:58;;;;;;;0.70;0.00;;;24.30;41.80;;;;;;5000917;28;20069;-61
2022/02/16 07:16:28;;;;;;;2.60;0.00;;;24.30;41.80;;;;;;4983441;28;20046;-61
2022/02/16 07:18:55;;;;;;;0.00;0.00;;;24.30;42.40;;;;;;4986508;28;20561;-61
2022/02/16 07:21:26;;;;;;;0.13;0.00;;;24.30;41.80;;;;;;4996523;28;20868;-61
2022/02/16 07:23:55;;;;;;;0.00;0.00;;;24.40;41.80;;;;;;4986644;28;20041;-61
2022/02/16 07:26:23;;;;;;;0.52;0.00;;;24.40;41.80;;;;;;4987855;28;20320;-61
2022/02/16 07:28:50;;;;;;;0.10;0.00;;;24.40;41.80;;;;;;4988517;28;20057;-61
2022/02/16 07:31:18;;;;;;;0.00;0.00;;;24.40;41.80;;;;;;4980586;28;20430;-61
2022/02/16 07:33:47;;;;;;;0.00;0.00;;;24.40;42.40;;;;;;4972750;28;20034;-60
2022/02/16 07:36:15;;;;;;;0.50;0.00;;;24.40;41.80;;;;;;5047615;28;20068;-61
2022/02/16 07:38:44;;;;;;;0.00;0.00;;;24.50;41.90;;;;;;5054022;28;20063;-61
2022/02/16 07:41:12;;;;;;;0.20;0.20;;;24.50;41.90;;;;;;5056967;28;20658;-61
2022/02/16 07:43:49;;;;;;;0.85;0.00;;;24.50;41.90;;;;;;5054836;28;20036;-61
2022/02/16 07:46:34;;;;;;;1.65;0.00;;;24.50;42.00;;;;;;5068015;28;20512;-61
2022/02/16 07:49:05;;;;;;;0.63;0.00;;;24.50;42.00;;;;;;5059092;28;20101;-59
2022/02/16 07:51:55;;;;;;;1.55;0.03;;;24.50;42.00;;;;;;4955466;28;20055;-51
2022/02/16 07:54:26;;;;;;;11.25;0.35;;;24.50;42.00;;;;;;4969325;28;20051;-63
2022/02/16 07:57:11;;;;;;;0.98;0.00;;;24.50;42.50;;;;;;4977126;28;20050;-69
2022/02/16 07:59:38;;;;;;;2.63;0.15;;;24.50;42.70;;;;;;4964662;28;20055;-70
2022/02/16 08:02:06;;;;;;;0.73;0.43;;;24.60;42.60;;;;;;4972284;28;20058;-68
2022/02/16 08:04:35;;;;;;;0.22;0.00;;;24.80;42.60;;;;;;4967172;28;20118;-75
2022/02/16 08:07:04;;;;;;;0.00;0.00;;;24.90;42.30;;;;;;4959731;28;20069;-72
2022/02/16 08:09:33;;;;;;;0.32;0.20;;;25.00;42.10;;;;;;4954846;28;20055;-70
2022/02/16 08:12:01;;;;;;;0.38;0.00;;;25.20;41.90;;;;;;4981804;28;20054;-70
2022/02/16 08:14:33;;;;;;;0.43;0.20;;;25.30;41.70;;;;;;4956776;28;20124;-67
2022/02/16 08:17:02;;;;;;;1.15;0.00;;;25.30;41.50;;;;;;4954147;28;20047;-64
2022/02/16 08:19:30;;;;;;;0.10;0.10;;;25.40;41.40;;;;;;4947033;28;20046;-67
2022/02/16 08:21:58;;;;;;;0.00;0.00;;;25.50;41.40;;;;;;4961227;28;20146;-69
2022/02/16 08:24:28;;;;;;;0.03;0.00;;;25.50;41.30;;;;;;4979150;28;20047;-66
2022/02/16 08:27:00;;;;;;;0.00;0.00;;;25.60;41.30;;;;;;4946997;28;20399;-64
2022/02/16 08:29:28;;;;;;;0.13;0.13;;;25.60;41.10;;;;;;5037957;28;20063;-71
2022/02/16 08:31:58;;;;;;;0.38;0.10;;;25.60;41.10;;;;;;5064147;28;20043;-65
2022/02/16 08:34:45;;;;;;;0.05;0.00;;;25.70;41.10;;;;;;5063437;28;20071;-74
2022/02/16 08:37:22;;;;;;;0.00;0.00;;;25.70;41.70;;;;;;5065112;28;20043;-80
2022/02/16 08:39:50;;;;;;;0.00;0.00;;;25.70;41.00;;;;;;5085759;28;20063;-71
2022/02/16 08:42:17;;;;;;;1.75;0.00;;;25.70;41.10;;;;;;5086919;28;20039;-72
2022/02/16 08:44:44;;;;;;;0.00;0.00;;;25.70;41.10;;;;;;5082172;28;20101;-62
2022/02/16 08:47:12;;;;;;;2.08;0.10;;;25.70;41.10;;;;;;5084618;28;20048;-63
2022/02/16 08:49:43;;;;;;;0.40;0.00;;;25.70;41.10;;;;;;5079959;28;20036;-64
2022/02/16 08:52:10;;;;;;;0.00;0.00;;;25.70;41.10;;;;;;5080538;28;20039;-65
2022/02/16 08:54:39;;;;;;;0.08;0.00;;;25.70;41.10;;;;;;5078005;28;20043;-66
2022/02/16 08:57:07;;;;;;;0.00;0.00;;;25.70;41.10;;;;;;5086617;28;20044;-66
2022/02/16 08:59:35;;;;;;;0.45;0.32;;;25.80;41.10;;;;;;5086791;28;20046;-66
2022/02/16 09:02:03;;;;;;;0.43;0.00;;;25.80;41.10;;;;;;5066030;28;20651;-70
2022/02/16 09:04:30;;;;;;;0.10;0.10;;;25.80;41.10;;;;;;5080354;28;20044;-71
2022/02/16 09:09:44;;;;;;;0.70;0.00;;;25.80;41.10;;;;;;5085026;28;20045;-53
2022/02/16 09:12:12;;;;;;;0.20;0.00;;;25.80;41.20;;;;;;5086412;28;20040;-62
2022/02/16 09:14:39;;;;;;;0.00;0.00;;;25.70;41.20;;;;;;5067636;28;20051;-62
2022/02/16 09:17:06;;;;;;;0.10;0.00;;;25.80;41.30;;;;;;5080306;28;20994;-65
2022/02/16 09:19:34;;;;;;;0.60;0.00;;;25.80;41.30;;;;;;5065221;28;20537;-62
2022/02/16 09:22:01;;;;;;;0.25;0.00;;;25.80;41.30;;;;;;5082496;28;20036;-61
2022/02/16 09:24:29;;;;;;;0.00;0.00;;;25.80;41.30;;;;;;5081075;28;20132;-60
2022/02/16 09:26:57;;;;;;;0.00;0.00;;;25.80;41.40;;;;;;5062672;28;20410;-62
2022/02/16 09:29:25;;;;;;;0.10;0.00;;;25.80;41.30;;;;;;5081296;28;20040;-64
2022/02/16 09:31:54;;;;;;;0.08;0.00;;;25.80;41.30;;;;;;5086908;28;20120;-67
2022/02/16 09:34:22;;;;;;;0.08;0.00;;;25.80;41.30;;;;;;5081968;28;20109;-61
2022/02/16 09:36:49;;;;;;;0.00;0.00;;;25.80;41.40;;;;;;5082793;28;20066;-65
2022/02/16 09:39:17;;;;;;;0.00;0.00;;;25.80;41.40;;;;;;5090246;28;20074;-66
2022/02/16 09:41:46;;;;;;;0.00;0.00;;;25.80;41.40;;;;;;5082834;28;20048;-65
2022/02/16 09:44:18;;;;;;;0.00;0.00;;;25.80;41.40;;;;;;5083144;28;20048;-63
2022/02/16 09:46:47;;;;;;;0.00;0.00;;;25.80;41.40;;;;;;5083237;28;20028;-63
2022/02/16 09:49:14;;;;;;;0.05;0.00;;;25.80;41.40;;;;;;5076877;28;20068;-54
2022/02/16 09:51:42;;;;;;;0.40;0.10;;;25.80;41.40;;;;;;5065433;28;20492;-62
2022/02/16 09:54:12;;;;;;;0.57;0.00;;;25.80;41.50;;;;;;5078887;28;20044;-61
2022/02/16 09:56:43;;;;;;;0.00;0.00;;;25.80;41.50;;;;;;5083307;28;20044;-59
2022/02/16 09:59:12;;;;;;;0.03;0.00;;;25.80;41.60;;;;;;5080077;28;20044;-59
2022/02/16 10:01:58;;;;;;;0.45;0.05;;;25.80;41.60;;;;;;5078270;28;20055;-59
2022/02/16 10:04:26;;;;;;;0.10;0.00;;;25.90;41.50;;;;;;5080472;28;20128;-62
2022/02/16 10:06:54;;;;;;;0.00;0.00;;;25.90;41.60;;;;;;5079550;28;20063;-61
2022/02/16 10:09:27;;;;;;;0.10;0.00;;;25.90;41.60;;;;;;5078380;28;20044;-59
2022/02/16 10:11:57;;;;;;;0.20;0.20;;;26.00;41.60;;;;;;5084171;28;20149;-56
2022/02/16 10:14:27;;;;;;;0.10;0.10;;;26.00;41.50;;;;;;5080567;28;20075;-52
2022/02/16 10:16:55;;;;;;;0.00;0.00;;;26.00;41.50;;;;;;5076283;28;20048;-51
2022/02/16 10:19:23;;;;;;;0.03;0.00;;;26.00;41.50;;;;;;5085387;28;20139;-61
2022/02/16 10:22:03;;;;;;;0.10;0.00;;;26.00;42.00;;;;;;5072831;28;20041;-52
2022/02/16 10:24:31;;;;;;;2.35;0.10;;;26.10;41.50;;;;;;5060564;28;20052;-59
2022/02/16 10:26:58;;;;;;;13.35;0.20;;;26.10;41.50;;;;;;5078630;28;20055;-62
2022/02/16 10:29:28;;;;;;;2.92;0.52;;;26.10;41.50;;;;;;5077556;28;20036;-62
2022/02/16 10:31:59;;;;;;;0.10;0.10;;;26.10;41.50;;;;;;5078548;28;20059;-60
2022/02/16 10:34:50;;;;;;;0.10;0.10;;;26.10;41.60;;;;;;5074232;28;20051;-56
2022/02/16 10:37:20;;;;;;;0.50;0.00;;;26.20;41.60;;;;;;5080256;28;20083;-60
2022/02/16 10:40:10;;;;;;;0.32;0.10;;;26.10;41.60;;;;;;5058696;28;20495;-64
2022/02/16 10:42:39;;;;;;;0.43;0.00;;;26.10;41.60;;;;;;5076925;28;20162;-68
2022/02/16 10:45:09;;;;;;;1.75;0.00;;;26.10;41.70;;;;;;5078106;28;20051;-66
2022/02/16 10:48:02;;;;;;;1.02;0.00;;;26.10;41.70;;;;;;5077845;28;20040;-70
2022/02/16 10:50:31;;;;;;;0.63;0.00;;;26.10;41.70;;;;;;5078179;28;20040;-61
2022/02/16 10:53:01;;;;;;;0.77;0.15;;;26.00;41.70;;;;;;5075799;28;20063;-63
2022/02/16 10:55:45;;;;;;;0.65;0.00;;;26.00;41.80;;;;;;5074919;28;20047;-63
2022/02/16 10:58:14;;;;;;;0.65;0.00;;;26.10;41.90;;;;;;5061435;28;20559;-61
2022/02/16 11:00:44;;;;;;;0.57;0.00;;;26.00;41.90;;;;;;5076168;28;20040;-67
2022/02/16 11:03:31;;;;;;;6.63;1.27;;;26.00;41.90;;;;;;5075395;28;20113;-57
2022/02/16 11:06:00;;;;;;;7.13;1.55;;;26.00;41.80;;;;;;5085397;28;20036;-52
2022/02/16 11:08:30;;;;;;;0.00;0.00;;;25.80;41.80;;;;;;5051812;28;20044;-57
2022/02/16 11:11:03;;;;;;;2.40;0.00;;;25.70;41.90;;;;;;5073448;28;20071;-57
2022/02/16 11:13:31;;;;;;;0.00;0.00;;;25.50;42.00;;;;;;5081737;28;20046;-58
2022/02/16 11:16:01;;;;;;;0.25;0.05;;;25.30;42.20;;;;;;5078496;28;20051;-56
2022/02/16 11:18:44;;;;;;;0.10;0.00;;;25.20;42.40;;;;;;5081595;28;20599;-58
2022/02/16 11:21:14;;;;;;;0.85;0.00;;;25.00;42.50;;;;;;5073009;28;20036;-57
2022/02/16 11:23:44;;;;;;;0.10;0.00;;;24.90;42.70;;;;;;5069639;28;20515;-57
2022/02/16 11:26:34;;;;;;;2.95;0.10;;;24.70;42.90;;;;;;5074146;28;20040;-64
2022/02/16 11:29:06;;;;;;;2.92;0.32;;;24.60;43.40;;;;;;5075946;28;20581;-63
2022/02/16 11:31:37;;;;;;;0.57;0.10;;;24.40;44.20;;;;;;5075210;28;20036;-59
2022/02/16 11:34:19;;;;;;;2.38;0.20;;;24.30;44.80;;;;;;5083785;28;20036;-58
2022/02/16 11:36:53;;;;;;;1.95;0.10;;;24.20;45.10;;;;;;5062255;28;20040;-53
2022/02/16 11:39:40;;;;;;;6.70;0.05;;;24.10;45.70;;;;;;5073740;28;20516;-57
2022/02/16 11:42:09;;;;;;;4.25;0.10;;;24.10;46.00;;;;;;5083818;28;20044;-56
2022/02/16 11:45:04;;;;;;;0.82;0.10;;;24.00;46.20;;;;;;5074349;28;20513;-57
2022/02/16 11:47:54;;;;;;;2.83;0.00;;;24.00;46.30;;;;;;5075720;28;20580;-58
2022/02/16 11:50:38;;;;;;;5.43;0.08;;;23.90;46.40;;;;;;5070023;28;20037;-56
2022/02/16 11:53:08;;;;;;;4.25;0.65;;;23.80;46.50;;;;;;5069220;28;20543;-56
2022/02/16 11:55:38;;;;;;;1.42;0.10;;;23.80;46.60;;;;;;5075119;28;20061;-58
2022/02/16 11:58:23;;;;;;;7.03;0.10;;;23.70;46.50;;;;;;5082429;28;20127;-58
2022/02/16 12:01:08;;;;;;;0.85;0.10;;;23.70;46.60;;;;;;5068309;28;20040;-57
2022/02/16 12:03:37;;;;;;;0.10;0.00;;;23.60;46.70;;;;;;5072198;28;20040;-57
2022/02/16 12:06:15;;;;;;;0.75;0.00;;;23.60;46.80;;;;;;5071967;28;20033;-57
2022/02/16 12:09:04;;;;;;;0.63;0.00;;;23.70;46.90;;;;;;5071135;28;20032;-56
2022/02/16 12:11:32;;;;;;;2.08;0.00;;;23.70;46.80;;;;;;5051219;28;20040;-57
2022/02/16 12:14:02;;;;;;;0.05;0.00;;;23.70;46.80;;;;;;5075598;28;20048;-57
2022/02/16 12:16:31;;;;;;;5.05;0.10;;;23.70;46.70;;;;;;5078572;28;20463;-59
2022/02/16 12:19:01;;;;;;;0.55;0.00;;;23.70;46.70;;;;;;5070702;28;20521;-56
2022/02/16 12:21:34;;;;;;;1.85;0.10;;;23.70;46.70;;;;;;5065196;28;20049;-55
2022/02/16 12:24:03;;;;;;;3.08;0.08;;;23.70;46.70;;;;;;5081748;28;20790;-56
2022/02/16 12:26:39;;;;;;;0.10;0.00;;;23.60;46.60;;;;;;5071749;28;20055;-59
2022/02/16 12:29:10;;;;;;;0.03;0.00;;;23.70;46.70;;;;;;5067416;28;20543;-59
2022/02/16 12:31:39;;;;;;;0.00;0.00;;;23.70;46.80;;;;;;5072385;28;20564;-57
2022/02/16 12:34:09;;;;;;;0.40;0.00;;;23.70;46.70;;;;;;5080348;28;20046;-56
2022/02/16 12:36:40;;;;;;;0.00;0.00;;;23.80;46.80;;;;;;5071124;28;20058;-58
2022/02/16 12:39:11;;;;;;;0.17;0.17;;;23.80;46.70;;;;;;5076116;28;20093;-58
2022/02/16 12:41:39;;;;;;;0.00;0.00;;;23.80;47.20;;;;;;5074859;28;20048;-56
2022/02/16 12:44:08;;;;;;;0.17;0.00;;;23.80;46.50;;;;;;5078437;28;20046;-57
2022/02/16 12:46:38;;;;;;;0.35;0.00;;;23.80;46.50;;;;;;5070019;28;20093;-56
2022/02/16 12:49:05;;;;;;;0.00;0.00;;;23.80;46.40;;;;;;5071151;28;20151;-57
2022/02/16 12:51:35;;;;;;;0.30;0.00;;;23.80;46.50;;;;;;5067597;28;20041;-58
2022/02/16 12:54:07;;;;;;;1.63;0.00;;;23.90;46.50;;;;;;5077495;28;20048;-56
2022/02/16 12:56:37;;;;;;;2.30;0.00;;;23.90;46.40;;;;;;5078662;28;20060;-56
2022/02/16 12:59:18;;;;;;;0.00;0.00;;;23.90;46.40;;;;;;5079478;28;20134;-57
2022/02/16 13:01:45;;;;;;;0.00;0.00;;;23.80;46.30;;;;;;5080963;28;20119;-67
2022/02/16 13:04:14;;;;;;;0.00;0.00;;;23.80;46.50;;;;;;5077936;28;20040;-68
2022/02/16 13:06:43;;;;;;;0.05;0.00;;;23.80;47.50;;;;;;5073948;28;20048;-50